sensor_id;sensor_type;location;lat;lon;timestamp;P1;durP1;ratioP1;P2;durP2;ratioP2
51612;SDS011;37694;51.748;14.326;2023-09-30T00:01:09;9.30;;;4.30;;
51612;SDS011;37694;51.748;14.326;2023-09-30T00:03:39;7.32;;;4.53;;
51612;SDS011;37694;51.748;14.326;2023-09-30T00:06:06;8.23;;;4.07;;
51612;SDS011;37694;51.748;14.326;2023-09-30T00:08:31;9.88;;;4.40;;
51612;SDS011;37694;51.748;14.326;2023-09-30T00:10:57;9.88;;;4.80;;
51612;SDS011;37694;51.748;14.326;2023-09-30T00:13:22;7.65;;;4.00;;
51612;SDS011;37694;51.748;14.326;2023-09-30T00:15:49;8.32;;;4.35;;
51612;SDS011;37694;51.748;14.326;2023-09-30T00:18:14;9.68;;;4.40;;
51612;SDS011;37694;51.748;14.326;2023-09-30T00:20:40;8.50;;;4.43;;
51612;SDS011;37694;51.748;14.326;2023-09-30T00:23:06;11.15;;;4.20;;
51612;SDS011;37694;51.748;14.326;2023-09-30T00:25:34;6.85;;;4.15;;
51612;SDS011;37694;51.748;14.326;2023-09-30T00:28:00;7.75;;;4.72;;
51612;SDS011;37694;51.748;14.326;2023-09-30T00:30:26;9.10;;;4.43;;
51612;SDS011;37694;51.748;14.326;2023-09-30T00:32:51;4.97;;;3.75;;
51612;SDS011;37694;51.748;14.326;2023-09-30T00:35:17;6.68;;;3.67;;
51612;SDS011;37694;51.748;14.326;2023-09-30T00:37:42;8.75;;;5.03;;
51612;SDS011;37694;51.748;14.326;2023-09-30T00:40:08;5.95;;;4.30;;
51612;SDS011;37694;51.748;14.326;2023-09-30T00:42:38;12.55;;;4.32;;
51612;SDS011;37694;51.748;14.326;2023-09-30T00:45:04;8.90;;;4.03;;
51612;SDS011;37694;51.748;14.326;2023-09-30T00:47:31;5.72;;;4.07;;
51612;SDS011;37694;51.748;14.326;2023-09-30T00:49:59;5.43;;;3.65;;
51612;SDS011;37694;51.748;14.326;2023-09-30T00:52:25;8.43;;;4.13;;
51612;SDS011;37694;51.748;14.326;2023-09-30T00:54:50;8.60;;;4.75;;
51612;SDS011;37694;51.748;14.326;2023-09-30T00:57:19;6.90;;;4.20;;
51612;SDS011;37694;51.748;14.326;2023-09-30T00:59:45;9.20;;;3.90;;
51612;SDS011;37694;51.748;14.326;2023-09-30T01:02:13;5.30;;;4.07;;
51612;SDS011;37694;51.748;14.326;2023-09-30T01:04:39;5.50;;;4.30;;
51612;SDS011;37694;51.748;14.326;2023-09-30T01:07:06;6.95;;;3.90;;
51612;SDS011;37694;51.748;14.326;2023-09-30T01:09:32;9.55;;;4.55;;
51612;SDS011;37694;51.748;14.326;2023-09-30T01:11:58;6.15;;;4.00;;
51612;SDS011;37694;51.748;14.326;2023-09-30T01:14:28;10.15;;;4.53;;
51612;SDS011;37694;51.748;14.326;2023-09-30T01:16:54;6.25;;;4.38;;
51612;SDS011;37694;51.748;14.326;2023-09-30T01:19:20;10.05;;;4.45;;
51612;SDS011;37694;51.748;14.326;2023-09-30T01:21:46;6.55;;;4.18;;
51612;SDS011;37694;51.748;14.326;2023-09-30T01:24:16;6.82;;;4.15;;
51612;SDS011;37694;51.748;14.326;2023-09-30T01:26:42;5.32;;;3.55;;
51612;SDS011;37694;51.748;14.326;2023-09-30T01:29:08;6.90;;;4.38;;
51612;SDS011;37694;51.748;14.326;2023-09-30T01:31:37;12.57;;;4.18;;
51612;SDS011;37694;51.748;14.326;2023-09-30T01:34:04;8.45;;;4.03;;
51612;SDS011;37694;51.748;14.326;2023-09-30T01:36:30;6.93;;;4.00;;
51612;SDS011;37694;51.748;14.326;2023-09-30T01:38:56;4.93;;;4.43;;
51612;SDS011;37694;51.748;14.326;2023-09-30T01:41:22;6.28;;;4.00;;
51612;SDS011;37694;51.748;14.326;2023-09-30T01:43:48;5.95;;;3.88;;
51612;SDS011;37694;51.748;14.326;2023-09-30T01:46:14;12.63;;;4.32;;
51612;SDS011;37694;51.748;14.326;2023-09-30T01:48:40;7.85;;;4.15;;
51612;SDS011;37694;51.748;14.326;2023-09-30T01:51:06;7.03;;;4.10;;
51612;SDS011;37694;51.748;14.326;2023-09-30T01:53:32;6.32;;;4.30;;
51612;SDS011;37694;51.748;14.326;2023-09-30T01:55:58;4.00;;;3.60;;
51612;SDS011;37694;51.748;14.326;2023-09-30T01:58:24;6.55;;;4.28;;
51612;SDS011;37694;51.748;14.326;2023-09-30T02:00:51;7.97;;;4.18;;
51612;SDS011;37694;51.748;14.326;2023-09-30T02:03:17;5.40;;;3.42;;
51612;SDS011;37694;51.748;14.326;2023-09-30T02:05:43;6.25;;;4.10;;
51612;SDS011;37694;51.748;14.326;2023-09-30T02:08:08;5.10;;;3.80;;
51612;SDS011;37694;51.748;14.326;2023-09-30T02:10:34;4.57;;;3.90;;
51612;SDS011;37694;51.748;14.326;2023-09-30T02:13:00;9.77;;;4.30;;
51612;SDS011;37694;51.748;14.326;2023-09-30T02:15:26;7.10;;;4.38;;
51612;SDS011;37694;51.748;14.326;2023-09-30T02:17:51;7.45;;;3.83;;
51612;SDS011;37694;51.748;14.326;2023-09-30T02:20:17;9.05;;;3.90;;
51612;SDS011;37694;51.748;14.326;2023-09-30T02:22:50;10.02;;;4.13;;
51612;SDS011;37694;51.748;14.326;2023-09-30T02:25:17;7.20;;;3.95;;
51612;SDS011;37694;51.748;14.326;2023-09-30T02:27:43;7.82;;;3.80;;
51612;SDS011;37694;51.748;14.326;2023-09-30T02:30:10;7.25;;;3.80;;
51612;SDS011;37694;51.748;14.326;2023-09-30T02:32:39;6.45;;;3.88;;
51612;SDS011;37694;51.748;14.326;2023-09-30T02:35:05;4.07;;;3.28;;
51612;SDS011;37694;51.748;14.326;2023-09-30T02:37:32;6.15;;;3.75;;
51612;SDS011;37694;51.748;14.326;2023-09-30T02:40:02;5.30;;;3.78;;
51612;SDS011;37694;51.748;14.326;2023-09-30T02:42:39;9.02;;;4.22;;
51612;SDS011;37694;51.748;14.326;2023-09-30T02:45:05;5.43;;;3.53;;
51612;SDS011;37694;51.748;14.326;2023-09-30T02:47:33;7.07;;;3.78;;
51612;SDS011;37694;51.748;14.326;2023-09-30T02:49:59;4.38;;;3.88;;
51612;SDS011;37694;51.748;14.326;2023-09-30T02:52:25;5.70;;;3.53;;
51612;SDS011;37694;51.748;14.326;2023-09-30T02:54:52;5.80;;;3.80;;
51612;SDS011;37694;51.748;14.326;2023-09-30T02:57:17;5.07;;;3.35;;
51612;SDS011;37694;51.748;14.326;2023-09-30T02:59:44;11.57;;;3.75;;
51612;SDS011;37694;51.748;14.326;2023-09-30T03:02:10;6.15;;;3.78;;
51612;SDS011;37694;51.748;14.326;2023-09-30T03:04:36;10.07;;;4.03;;
51612;SDS011;37694;51.748;14.326;2023-09-30T03:07:02;7.22;;;3.97;;
51612;SDS011;37694;51.748;14.326;2023-09-30T03:09:28;4.75;;;3.55;;
51612;SDS011;37694;51.748;14.326;2023-09-30T03:11:54;6.68;;;3.80;;
51612;SDS011;37694;51.748;14.326;2023-09-30T03:14:24;7.15;;;3.75;;
51612;SDS011;37694;51.748;14.326;2023-09-30T03:16:50;3.97;;;3.10;;
51612;SDS011;37694;51.748;14.326;2023-09-30T03:19:16;5.00;;;3.50;;
51612;SDS011;37694;51.748;14.326;2023-09-30T03:21:44;7.03;;;3.58;;
51612;SDS011;37694;51.748;14.326;2023-09-30T03:24:10;9.23;;;4.28;;
51612;SDS011;37694;51.748;14.326;2023-09-30T03:26:37;3.60;;;3.05;;
51612;SDS011;37694;51.748;14.326;2023-09-30T03:29:05;5.78;;;3.42;;
51612;SDS011;37694;51.748;14.326;2023-09-30T03:31:31;7.55;;;3.85;;
51612;SDS011;37694;51.748;14.326;2023-09-30T03:33:57;6.90;;;3.75;;
51612;SDS011;37694;51.748;14.326;2023-09-30T03:36:23;9.20;;;3.58;;
51612;SDS011;37694;51.748;14.326;2023-09-30T03:38:52;5.70;;;3.33;;
51612;SDS011;37694;51.748;14.326;2023-09-30T03:41:21;5.07;;;3.92;;
51612;SDS011;37694;51.748;14.326;2023-09-30T03:43:47;6.95;;;4.10;;
51612;SDS011;37694;51.748;14.326;2023-09-30T03:46:14;8.05;;;3.70;;
51612;SDS011;37694;51.748;14.326;2023-09-30T03:48:40;4.65;;;2.92;;
51612;SDS011;37694;51.748;14.326;2023-09-30T03:51:12;4.97;;;3.20;;
51612;SDS011;37694;51.748;14.326;2023-09-30T03:53:39;8.20;;;3.40;;
51612;SDS011;37694;51.748;14.326;2023-09-30T03:56:05;4.95;;;3.20;;
51612;SDS011;37694;51.748;14.326;2023-09-30T03:58:31;5.78;;;3.05;;
51612;SDS011;37694;51.748;14.326;2023-09-30T04:00:57;8.88;;;4.10;;
51612;SDS011;37694;51.748;14.326;2023-09-30T04:03:25;11.02;;;3.33;;
51612;SDS011;37694;51.748;14.326;2023-09-30T04:05:52;6.00;;;3.40;;
51612;SDS011;37694;51.748;14.326;2023-09-30T04:08:18;8.43;;;3.20;;
51612;SDS011;37694;51.748;14.326;2023-09-30T04:10:44;7.95;;;3.25;;
51612;SDS011;37694;51.748;14.326;2023-09-30T04:13:10;3.95;;;2.85;;
51612;SDS011;37694;51.748;14.326;2023-09-30T04:15:36;4.40;;;3.15;;
51612;SDS011;37694;51.748;14.326;2023-09-30T04:18:03;6.80;;;3.35;;
51612;SDS011;37694;51.748;14.326;2023-09-30T04:20:30;5.53;;;3.80;;
51612;SDS011;37694;51.748;14.326;2023-09-30T04:22:56;4.00;;;2.97;;
51612;SDS011;37694;51.748;14.326;2023-09-30T04:25:22;4.45;;;3.30;;
51612;SDS011;37694;51.748;14.326;2023-09-30T04:27:52;10.23;;;3.08;;
51612;SDS011;37694;51.748;14.326;2023-09-30T04:30:18;7.05;;;3.33;;
51612;SDS011;37694;51.748;14.326;2023-09-30T04:32:44;5.60;;;3.03;;
51612;SDS011;37694;51.748;14.326;2023-09-30T04:35:10;5.85;;;3.15;;
51612;SDS011;37694;51.748;14.326;2023-09-30T04:37:36;3.42;;;2.92;;
51612;SDS011;37694;51.748;14.326;2023-09-30T04:40:03;6.50;;;2.90;;
51612;SDS011;37694;51.748;14.326;2023-09-30T04:42:32;5.97;;;3.25;;
51612;SDS011;37694;51.748;14.326;2023-09-30T04:45:01;6.95;;;3.45;;
51612;SDS011;37694;51.748;14.326;2023-09-30T04:47:28;5.32;;;3.45;;
51612;SDS011;37694;51.748;14.326;2023-09-30T04:49:53;6.07;;;3.25;;
51612;SDS011;37694;51.748;14.326;2023-09-30T04:52:19;4.53;;;3.53;;
51612;SDS011;37694;51.748;14.326;2023-09-30T04:54:45;5.93;;;3.15;;
51612;SDS011;37694;51.748;14.326;2023-09-30T04:57:11;10.93;;;3.22;;
51612;SDS011;37694;51.748;14.326;2023-09-30T04:59:37;8.10;;;3.03;;
51612;SDS011;37694;51.748;14.326;2023-09-30T05:02:02;6.30;;;3.70;;
51612;SDS011;37694;51.748;14.326;2023-09-30T05:04:28;5.68;;;3.00;;
51612;SDS011;37694;51.748;14.326;2023-09-30T05:06:54;6.20;;;3.35;;
51612;SDS011;37694;51.748;14.326;2023-09-30T05:09:20;8.40;;;3.10;;
51612;SDS011;37694;51.748;14.326;2023-09-30T05:11:46;7.63;;;3.63;;
51612;SDS011;37694;51.748;14.326;2023-09-30T05:14:11;9.55;;;3.10;;
51612;SDS011;37694;51.748;14.326;2023-09-30T05:16:38;5.47;;;3.10;;
51612;SDS011;37694;51.748;14.326;2023-09-30T05:19:04;4.13;;;3.28;;
51612;SDS011;37694;51.748;14.326;2023-09-30T05:21:29;7.03;;;3.63;;
51612;SDS011;37694;51.748;14.326;2023-09-30T05:23:55;7.22;;;2.95;;
51612;SDS011;37694;51.748;14.326;2023-09-30T05:26:21;7.95;;;3.53;;
51612;SDS011;37694;51.748;14.326;2023-09-30T05:28:47;6.30;;;3.13;;
51612;SDS011;37694;51.748;14.326;2023-09-30T05:31:13;9.57;;;2.85;;
51612;SDS011;37694;51.748;14.326;2023-09-30T05:33:38;11.52;;;3.03;;
51612;SDS011;37694;51.748;14.326;2023-09-30T05:36:04;9.82;;;3.33;;
51612;SDS011;37694;51.748;14.326;2023-09-30T05:38:30;7.25;;;3.55;;
51612;SDS011;37694;51.748;14.326;2023-09-30T05:40:58;8.13;;;3.45;;
51612;SDS011;37694;51.748;14.326;2023-09-30T05:43:24;8.45;;;3.33;;
51612;SDS011;37694;51.748;14.326;2023-09-30T05:45:52;6.97;;;3.78;;
51612;SDS011;37694;51.748;14.326;2023-09-30T05:48:20;6.47;;;3.22;;
51612;SDS011;37694;51.748;14.326;2023-09-30T05:50:46;14.70;;;2.92;;
51612;SDS011;37694;51.748;14.326;2023-09-30T05:53:12;9.48;;;3.38;;
51612;SDS011;37694;51.748;14.326;2023-09-30T05:55:39;7.75;;;3.65;;
51612;SDS011;37694;51.748;14.326;2023-09-30T05:58:12;7.72;;;3.60;;
51612;SDS011;37694;51.748;14.326;2023-09-30T06:00:42;6.05;;;3.20;;
51612;SDS011;37694;51.748;14.326;2023-09-30T06:03:08;10.40;;;3.20;;
51612;SDS011;37694;51.748;14.326;2023-09-30T06:05:38;11.40;;;3.20;;
51612;SDS011;37694;51.748;14.326;2023-09-30T06:08:06;6.80;;;3.55;;
51612;SDS011;37694;51.748;14.326;2023-09-30T06:10:35;8.93;;;3.03;;
51612;SDS011;37694;51.748;14.326;2023-09-30T06:13:03;15.95;;;4.00;;
51612;SDS011;37694;51.748;14.326;2023-09-30T06:15:29;13.10;;;3.22;;
51612;SDS011;37694;51.748;14.326;2023-09-30T06:17:56;21.88;;;4.60;;
51612;SDS011;37694;51.748;14.326;2023-09-30T06:20:22;8.48;;;3.65;;
51612;SDS011;37694;51.748;14.326;2023-09-30T06:22:51;14.07;;;5.07;;
51612;SDS011;37694;51.748;14.326;2023-09-30T06:25:19;16.30;;;4.40;;
51612;SDS011;37694;51.748;14.326;2023-09-30T06:27:47;20.05;;;5.00;;
51612;SDS011;37694;51.748;14.326;2023-09-30T06:30:14;14.68;;;4.63;;
51612;SDS011;37694;51.748;14.326;2023-09-30T06:32:44;24.90;;;4.80;;
51612;SDS011;37694;51.748;14.326;2023-09-30T06:35:10;12.10;;;4.05;;
51612;SDS011;37694;51.748;14.326;2023-09-30T06:37:37;12.82;;;4.30;;
51612;SDS011;37694;51.748;14.326;2023-09-30T06:40:06;19.38;;;5.63;;
51612;SDS011;37694;51.748;14.326;2023-09-30T06:42:33;20.80;;;5.32;;
51612;SDS011;37694;51.748;14.326;2023-09-30T06:45:05;17.05;;;5.20;;
51612;SDS011;37694;51.748;14.326;2023-09-30T06:47:31;16.15;;;5.15;;
51612;SDS011;37694;51.748;14.326;2023-09-30T06:50:07;14.90;;;5.60;;
51612;SDS011;37694;51.748;14.326;2023-09-30T06:52:35;22.48;;;5.20;;
51612;SDS011;37694;51.748;14.326;2023-09-30T06:55:02;22.33;;;5.53;;
51612;SDS011;37694;51.748;14.326;2023-09-30T06:57:32;21.17;;;5.05;;
51612;SDS011;37694;51.748;14.326;2023-09-30T07:00:05;24.17;;;6.05;;
51612;SDS011;37694;51.748;14.326;2023-09-30T07:02:36;26.38;;;5.38;;
51612;SDS011;37694;51.748;14.326;2023-09-30T07:05:09;23.10;;;5.82;;
51612;SDS011;37694;51.748;14.326;2023-09-30T07:07:36;21.27;;;5.85;;
51612;SDS011;37694;51.748;14.326;2023-09-30T07:10:03;20.75;;;4.72;;
51612;SDS011;37694;51.748;14.326;2023-09-30T07:12:30;21.83;;;5.85;;
51612;SDS011;37694;51.748;14.326;2023-09-30T07:14:56;22.35;;;5.13;;
51612;SDS011;37694;51.748;14.326;2023-09-30T07:17:22;22.42;;;5.53;;
51612;SDS011;37694;51.748;14.326;2023-09-30T07:19:48;18.35;;;5.53;;
51612;SDS011;37694;51.748;14.326;2023-09-30T07:22:14;20.90;;;5.28;;
51612;SDS011;37694;51.748;14.326;2023-09-30T07:24:40;13.35;;;4.63;;
51612;SDS011;37694;51.748;14.326;2023-09-30T07:27:07;14.30;;;4.78;;
51612;SDS011;37694;51.748;14.326;2023-09-30T07:29:32;14.20;;;5.25;;
51612;SDS011;37694;51.748;14.326;2023-09-30T07:31:58;22.17;;;5.32;;
51612;SDS011;37694;51.748;14.326;2023-09-30T07:34:24;20.27;;;5.45;;
51612;SDS011;37694;51.748;14.326;2023-09-30T07:36:49;16.55;;;5.40;;
51612;SDS011;37694;51.748;14.326;2023-09-30T07:39:15;14.52;;;5.20;;
51612;SDS011;37694;51.748;14.326;2023-09-30T07:41:42;21.10;;;5.32;;
51612;SDS011;37694;51.748;14.326;2023-09-30T07:44:08;15.10;;;5.40;;
51612;SDS011;37694;51.748;14.326;2023-09-30T07:46:34;28.15;;;5.30;;
51612;SDS011;37694;51.748;14.326;2023-09-30T07:49:00;21.38;;;5.32;;
51612;SDS011;37694;51.748;14.326;2023-09-30T07:51:28;27.73;;;4.68;;
51612;SDS011;37694;51.748;14.326;2023-09-30T07:53:54;24.85;;;6.20;;
51612;SDS011;37694;51.748;14.326;2023-09-30T07:56:22;17.20;;;5.10;;
51612;SDS011;37694;51.748;14.326;2023-09-30T07:58:48;16.15;;;5.18;;
51612;SDS011;37694;51.748;14.326;2023-09-30T08:01:14;19.05;;;5.10;;
51612;SDS011;37694;51.748;14.326;2023-09-30T08:03:43;23.98;;;5.30;;
51612;SDS011;37694;51.748;14.326;2023-09-30T08:06:09;16.63;;;5.43;;
51612;SDS011;37694;51.748;14.326;2023-09-30T08:08:35;21.20;;;6.78;;
51612;SDS011;37694;51.748;14.326;2023-09-30T08:11:01;20.23;;;5.03;;
51612;SDS011;37694;51.748;14.326;2023-09-30T08:13:27;16.75;;;5.10;;
51612;SDS011;37694;51.748;14.326;2023-09-30T08:15:54;24.17;;;5.35;;
51612;SDS011;37694;51.748;14.326;2023-09-30T08:18:20;17.10;;;4.50;;
51612;SDS011;37694;51.748;14.326;2023-09-30T08:20:46;15.63;;;5.10;;
51612;SDS011;37694;51.748;14.326;2023-09-30T08:23:12;24.27;;;4.72;;
51612;SDS011;37694;51.748;14.326;2023-09-30T08:25:38;20.77;;;4.45;;
51612;SDS011;37694;51.748;14.326;2023-09-30T08:28:04;18.20;;;4.35;;
51612;SDS011;37694;51.748;14.326;2023-09-30T08:30:32;24.95;;;5.05;;
51612;SDS011;37694;51.748;14.326;2023-09-30T08:32:58;14.68;;;4.35;;
51612;SDS011;37694;51.748;14.326;2023-09-30T08:35:24;13.82;;;4.82;;
51612;SDS011;37694;51.748;14.326;2023-09-30T08:37:50;23.20;;;5.53;;
51612;SDS011;37694;51.748;14.326;2023-09-30T08:40:20;15.38;;;4.25;;
51612;SDS011;37694;51.748;14.326;2023-09-30T08:42:48;24.58;;;4.72;;
51612;SDS011;37694;51.748;14.326;2023-09-30T08:45:18;18.95;;;4.68;;
51612;SDS011;37694;51.748;14.326;2023-09-30T08:47:47;18.58;;;5.32;;
51612;SDS011;37694;51.748;14.326;2023-09-30T08:50:13;22.15;;;4.82;;
51612;SDS011;37694;51.748;14.326;2023-09-30T08:52:40;28.75;;;5.45;;
51612;SDS011;37694;51.748;14.326;2023-09-30T08:55:07;28.85;;;6.93;;
51612;SDS011;37694;51.748;14.326;2023-09-30T08:57:35;25.48;;;4.80;;
51612;SDS011;37694;51.748;14.326;2023-09-30T09:00:04;16.25;;;5.20;;
51612;SDS011;37694;51.748;14.326;2023-09-30T09:02:34;29.27;;;5.13;;
51612;SDS011;37694;51.748;14.326;2023-09-30T09:05:00;30.02;;;4.45;;
51612;SDS011;37694;51.748;14.326;2023-09-30T09:07:27;18.05;;;5.07;;
51612;SDS011;37694;51.748;14.326;2023-09-30T09:12:32;24.13;;;5.45;;
51612;SDS011;37694;51.748;14.326;2023-09-30T09:14:58;26.92;;;5.55;;
51612;SDS011;37694;51.748;14.326;2023-09-30T09:17:24;26.08;;;5.05;;
51612;SDS011;37694;51.748;14.326;2023-09-30T09:20:08;14.82;;;5.03;;
51612;SDS011;37694;51.748;14.326;2023-09-30T09:22:42;18.58;;;5.25;;
51612;SDS011;37694;51.748;14.326;2023-09-30T09:25:09;17.48;;;4.10;;
51612;SDS011;37694;51.748;14.326;2023-09-30T09:27:38;11.75;;;4.15;;
51612;SDS011;37694;51.748;14.326;2023-09-30T09:30:23;23.60;;;4.65;;
51612;SDS011;37694;51.748;14.326;2023-09-30T09:35:24;21.55;;;5.13;;
51612;SDS011;37694;51.748;14.326;2023-09-30T09:38:01;11.90;;;4.10;;
51612;SDS011;37694;51.748;14.326;2023-09-30T09:40:29;15.27;;;4.10;;
51612;SDS011;37694;51.748;14.326;2023-09-30T09:42:57;14.32;;;4.18;;
51612;SDS011;37694;51.748;14.326;2023-09-30T09:45:25;22.55;;;5.07;;
51612;SDS011;37694;51.748;14.326;2023-09-30T09:47:52;16.20;;;4.10;;
51612;SDS011;37694;51.748;14.326;2023-09-30T09:50:22;14.95;;;4.57;;
51612;SDS011;37694;51.748;14.326;2023-09-30T09:52:49;11.40;;;4.30;;
51612;SDS011;37694;51.748;14.326;2023-09-30T09:55:20;16.75;;;4.10;;
51612;SDS011;37694;51.748;14.326;2023-09-30T09:57:47;15.65;;;4.10;;
51612;SDS011;37694;51.748;14.326;2023-09-30T10:00:24;15.88;;;3.58;;
51612;SDS011;37694;51.748;14.326;2023-09-30T10:02:50;9.30;;;3.58;;
51612;SDS011;37694;51.748;14.326;2023-09-30T10:05:17;13.55;;;3.63;;
51612;SDS011;37694;51.748;14.326;2023-09-30T10:07:57;13.50;;;4.63;;
51612;SDS011;37694;51.748;14.326;2023-09-30T10:10:28;13.90;;;3.83;;
51612;SDS011;37694;51.748;14.326;2023-09-30T10:12:55;13.90;;;4.03;;
51612;SDS011;37694;51.748;14.326;2023-09-30T10:20:27;14.63;;;4.25;;
51612;SDS011;37694;51.748;14.326;2023-09-30T10:28:40;13.52;;;3.90;;
51612;SDS011;37694;51.748;14.326;2023-09-30T10:36:45;14.57;;;3.90;;
51612;SDS011;37694;51.748;14.326;2023-09-30T10:54:29;8.30;;;3.15;;
51612;SDS011;37694;51.748;14.326;2023-09-30T10:56:56;12.35;;;3.80;;
51612;SDS011;37694;51.748;14.326;2023-09-30T11:02:52;6.55;;;3.08;;
51612;SDS011;37694;51.748;14.326;2023-09-30T11:08:40;7.60;;;3.15;;
51612;SDS011;37694;51.748;14.326;2023-09-30T11:11:15;8.93;;;3.22;;
51612;SDS011;37694;51.748;14.326;2023-09-30T11:13:41;6.32;;;2.95;;
51612;SDS011;37694;51.748;14.326;2023-09-30T11:16:07;8.25;;;3.70;;
51612;SDS011;37694;51.748;14.326;2023-09-30T11:18:33;8.00;;;3.40;;
51612;SDS011;37694;51.748;14.326;2023-09-30T11:21:03;8.27;;;2.90;;
51612;SDS011;37694;51.748;14.326;2023-09-30T11:23:38;8.73;;;3.42;;
51612;SDS011;37694;51.748;14.326;2023-09-30T11:26:06;5.55;;;3.13;;
51612;SDS011;37694;51.748;14.326;2023-09-30T11:28:36;7.45;;;3.17;;
51612;SDS011;37694;51.748;14.326;2023-09-30T11:31:07;4.35;;;2.88;;
51612;SDS011;37694;51.748;14.326;2023-09-30T11:33:52;5.95;;;3.10;;
51612;SDS011;37694;51.748;14.326;2023-09-30T11:36:20;7.30;;;2.90;;
51612;SDS011;37694;51.748;14.326;2023-09-30T11:38:47;5.75;;;2.95;;
51612;SDS011;37694;51.748;14.326;2023-09-30T11:41:15;6.75;;;2.85;;
51612;SDS011;37694;51.748;14.326;2023-09-30T11:44:03;6.13;;;3.08;;
51612;SDS011;37694;51.748;14.326;2023-09-30T11:46:52;7.60;;;2.97;;
51612;SDS011;37694;51.748;14.326;2023-09-30T11:49:31;4.93;;;2.87;;
51612;SDS011;37694;51.748;14.326;2023-09-30T11:52:02;6.70;;;2.50;;
51612;SDS011;37694;51.748;14.326;2023-09-30T11:56:55;7.18;;;2.88;;
51612;SDS011;37694;51.748;14.326;2023-09-30T11:59:21;8.65;;;3.08;;
51612;SDS011;37694;51.748;14.326;2023-09-30T12:01:47;8.10;;;2.70;;
51612;SDS011;37694;51.748;14.326;2023-09-30T12:04:16;17.40;;;3.53;;
51612;SDS011;37694;51.748;14.326;2023-09-30T12:06:46;23.55;;;3.80;;
51612;SDS011;37694;51.748;14.326;2023-09-30T12:09:16;14.15;;;3.08;;
51612;SDS011;37694;51.748;14.326;2023-09-30T12:11:47;12.98;;;3.55;;
51612;SDS011;37694;51.748;14.326;2023-09-30T12:14:16;11.00;;;3.08;;
51612;SDS011;37694;51.748;14.326;2023-09-30T12:16:42;13.82;;;2.95;;
51612;SDS011;37694;51.748;14.326;2023-09-30T12:19:10;12.02;;;3.35;;
51612;SDS011;37694;51.748;14.326;2023-09-30T12:21:38;8.90;;;3.67;;
51612;SDS011;37694;51.748;14.326;2023-09-30T12:24:05;10.88;;;2.97;;
51612;SDS011;37694;51.748;14.326;2023-09-30T12:26:32;7.10;;;2.78;;
51612;SDS011;37694;51.748;14.326;2023-09-30T12:28:58;10.70;;;3.10;;
51612;SDS011;37694;51.748;14.326;2023-09-30T12:31:24;11.23;;;3.28;;
51612;SDS011;37694;51.748;14.326;2023-09-30T12:33:50;8.18;;;2.47;;
51612;SDS011;37694;51.748;14.326;2023-09-30T12:36:20;6.72;;;2.70;;
51612;SDS011;37694;51.748;14.326;2023-09-30T12:38:49;4.93;;;2.67;;
51612;SDS011;37694;51.748;14.326;2023-09-30T12:41:15;8.20;;;3.03;;
51612;SDS011;37694;51.748;14.326;2023-09-30T12:43:40;7.97;;;2.85;;
51612;SDS011;37694;51.748;14.326;2023-09-30T12:46:07;12.88;;;3.15;;
51612;SDS011;37694;51.748;14.326;2023-09-30T12:48:34;6.82;;;2.67;;
51612;SDS011;37694;51.748;14.326;2023-09-30T12:51:00;5.05;;;2.40;;
51612;SDS011;37694;51.748;14.326;2023-09-30T12:53:25;7.22;;;2.85;;
51612;SDS011;37694;51.748;14.326;2023-09-30T12:55:51;9.77;;;2.92;;
51612;SDS011;37694;51.748;14.326;2023-09-30T12:58:17;5.18;;;2.53;;
51612;SDS011;37694;51.748;14.326;2023-09-30T13:00:42;7.65;;;2.35;;
51612;SDS011;37694;51.748;14.326;2023-09-30T13:03:09;9.00;;;2.40;;
51612;SDS011;37694;51.748;14.326;2023-09-30T13:05:34;5.78;;;2.67;;
51612;SDS011;37694;51.748;14.326;2023-09-30T13:08:00;8.60;;;3.05;;
51612;SDS011;37694;51.748;14.326;2023-09-30T13:10:26;7.20;;;2.40;;
51612;SDS011;37694;51.748;14.326;2023-09-30T13:12:52;11.50;;;2.88;;
51612;SDS011;37694;51.748;14.326;2023-09-30T13:15:19;9.40;;;3.42;;
51612;SDS011;37694;51.748;14.326;2023-09-30T13:17:46;10.57;;;2.67;;
51612;SDS011;37694;51.748;14.326;2023-09-30T13:20:13;6.82;;;2.38;;
51612;SDS011;37694;51.748;14.326;2023-09-30T13:22:38;5.28;;;2.58;;
51612;SDS011;37694;51.748;14.326;2023-09-30T13:25:04;4.97;;;2.42;;
51612;SDS011;37694;51.748;14.326;2023-09-30T13:27:33;8.02;;;3.08;;
51612;SDS011;37694;51.748;14.326;2023-09-30T13:29:59;10.10;;;2.83;;
51612;SDS011;37694;51.748;14.326;2023-09-30T13:32:26;7.00;;;2.75;;
51612;SDS011;37694;51.748;14.326;2023-09-30T13:34:52;7.85;;;2.60;;
51612;SDS011;37694;51.748;14.326;2023-09-30T13:37:19;8.50;;;3.05;;
51612;SDS011;37694;51.748;14.326;2023-09-30T13:39:44;4.60;;;2.22;;
51612;SDS011;37694;51.748;14.326;2023-09-30T13:42:10;6.97;;;2.65;;
51612;SDS011;37694;51.748;14.326;2023-09-30T13:44:36;5.00;;;2.55;;
51612;SDS011;37694;51.748;14.326;2023-09-30T13:47:02;10.10;;;2.55;;
51612;SDS011;37694;51.748;14.326;2023-09-30T13:49:28;5.30;;;2.25;;
51612;SDS011;37694;51.748;14.326;2023-09-30T13:51:55;8.40;;;2.97;;
51612;SDS011;37694;51.748;14.326;2023-09-30T13:54:21;6.28;;;2.83;;
51612;SDS011;37694;51.748;14.326;2023-09-30T13:56:46;6.18;;;2.58;;
51612;SDS011;37694;51.748;14.326;2023-09-30T13:59:12;7.63;;;2.92;;
51612;SDS011;37694;51.748;14.326;2023-09-30T14:01:38;11.10;;;3.17;;
51612;SDS011;37694;51.748;14.326;2023-09-30T14:04:06;8.88;;;2.67;;
51612;SDS011;37694;51.748;14.326;2023-09-30T14:06:32;5.88;;;2.30;;
51612;SDS011;37694;51.748;14.326;2023-09-30T14:08:58;5.47;;;2.38;;
51612;SDS011;37694;51.748;14.326;2023-09-30T14:11:25;13.95;;;2.40;;
51612;SDS011;37694;51.748;14.326;2023-09-30T14:13:51;8.65;;;3.00;;
51612;SDS011;37694;51.748;14.326;2023-09-30T14:16:17;7.68;;;3.00;;
51612;SDS011;37694;51.748;14.326;2023-09-30T14:18:42;6.30;;;2.10;;
51612;SDS011;37694;51.748;14.326;2023-09-30T14:21:10;7.50;;;3.40;;
51612;SDS011;37694;51.748;14.326;2023-09-30T14:23:35;6.88;;;2.35;;
51612;SDS011;37694;51.748;14.326;2023-09-30T14:26:01;4.07;;;2.45;;
51612;SDS011;37694;51.748;14.326;2023-09-30T14:28:35;4.97;;;2.47;;
51612;SDS011;37694;51.748;14.326;2023-09-30T14:31:02;6.72;;;2.40;;
51612;SDS011;37694;51.748;14.326;2023-09-30T14:33:29;4.82;;;2.67;;
51612;SDS011;37694;51.748;14.326;2023-09-30T14:35:55;5.03;;;2.67;;
51612;SDS011;37694;51.748;14.326;2023-09-30T14:38:21;4.45;;;2.35;;
51612;SDS011;37694;51.748;14.326;2023-09-30T14:40:48;8.63;;;3.15;;
51612;SDS011;37694;51.748;14.326;2023-09-30T14:43:15;5.28;;;2.72;;
51612;SDS011;37694;51.748;14.326;2023-09-30T14:45:40;7.68;;;2.28;;
51612;SDS011;37694;51.748;14.326;2023-09-30T14:48:07;4.75;;;2.60;;
51612;SDS011;37694;51.748;14.326;2023-09-30T14:50:34;4.07;;;2.10;;
51612;SDS011;37694;51.748;14.326;2023-09-30T14:53:01;10.23;;;3.50;;
51612;SDS011;37694;51.748;14.326;2023-09-30T14:55:27;4.40;;;2.22;;
51612;SDS011;37694;51.748;14.326;2023-09-30T14:57:54;6.03;;;2.58;;
51612;SDS011;37694;51.748;14.326;2023-09-30T15:00:20;7.22;;;2.60;;
51612;SDS011;37694;51.748;14.326;2023-09-30T15:02:49;8.07;;;1.92;;
51612;SDS011;37694;51.748;14.326;2023-09-30T15:05:15;5.85;;;2.45;;
51612;SDS011;37694;51.748;14.326;2023-09-30T15:07:41;5.03;;;2.38;;
51612;SDS011;37694;51.748;14.326;2023-09-30T15:10:08;5.30;;;2.45;;
51612;SDS011;37694;51.748;14.326;2023-09-30T15:12:34;4.68;;;2.45;;
51612;SDS011;37694;51.748;14.326;2023-09-30T15:15:00;2.08;;;1.63;;
51612;SDS011;37694;51.748;14.326;2023-09-30T15:17:26;4.78;;;2.40;;